Terminal Aerodrome Forecast
Issued by NWS Shreveport, LA

Home | Current Version | Previous Version | Text Only | Print | Product List | Glossary On
Versions: 1 2 3 4 5 6 7 8 9 10 11 12 13 14 15 16
000
FTUS44 KSHV 221100
TAFTXK
TAF
KTXK 221121Z 2212/2312 17009KT P6SM OVC010
     FM221600 19008KT P6SM OVC007
     FM222000 22008KT P6SM OVC013
     FM230000 25007KT P6SM BKN017
     FM230400 30005KT P6SM SCT020 SCT100 BKN250
     FM230800 34003KT P6SM OVC250=

USA.gov is the U.S. government's official web portal to all federal, state and local government web resources and services.